Time;durP1;ratioP1;P1;durP2;ratioP2;P2;SDS_P1;SDS_P2;PMS_P1;PMS_P2;Temp;Humidity;BMP_temperature;BMP_pressure;BME280_temperature;BME280_humidity;BME280_pressure;Samples;Min_cycle;Max_cycle;Signal;HPM_P1;HPM_P2
2022/07/27 00:01:45;;;;;;;9.98;7.53;;;;;;;19.39;63.20;99794.06;1730430;82;21022;-70
2022/07/27 00:04:18;;;;;;;9.15;7.85;;;;;;;19.38;63.25;99786.83;1726602;82;21062;-71
2022/07/27 00:06:53;;;;;;;9.83;7.80;;;;;;;19.37;63.37;99786.55;1736148;82;21023;-71
2022/07/27 00:09:22;;;;;;;9.18;7.75;;;;;;;19.36;63.37;99794.05;1746906;82;21467;-70
2022/07/27 00:11:53;;;;;;;8.83;7.92;;;;;;;19.33;63.45;99798.20;1725758;82;21527;-71
2022/07/27 00:14:24;;;;;;;10.95;8.78;;;;;;;19.31;63.58;99796.24;1731491;82;21023;-69
2022/07/27 00:16:53;;;;;;;15.60;8.70;;;;;;;19.31;63.64;99795.41;1728655;82;21043;-71
2022/07/27 00:19:23;;;;;;;9.83;8.48;;;;;;;19.29;63.73;99791.52;1729091;82;21023;-70
2022/07/27 00:21:53;;;;;;;11.55;8.88;;;;;;;19.25;63.96;99795.94;1732212;82;20999;-72
2022/07/27 00:24:24;;;;;;;12.40;9.90;;;;;;;19.22;64.28;99795.09;1731514;82;21031;-71
2022/07/27 00:26:53;;;;;;;11.85;9.03;;;;;;;19.22;64.49;99794.25;1733140;82;20995;-70
2022/07/27 00:29:23;;;;;;;10.25;8.63;;;;;;;19.22;64.42;99793.70;1729403;82;21070;-70
2022/07/27 00:31:52;;;;;;;12.75;8.78;;;;;;;19.20;64.48;99796.46;1733169;82;20991;-70
2022/07/27 00:34:21;;;;;;;14.13;9.15;;;;;;;19.15;64.53;99794.48;1727095;82;21019;-70
2022/07/27 00:36:50;;;;;;;16.15;9.10;;;;;;;19.13;64.65;99800.03;1711483;82;21068;-69
2022/07/27 00:39:20;;;;;;;15.13;9.40;;;;;;;19.12;64.67;99797.80;1736238;82;21003;-70
2022/07/27 00:41:49;;;;;;;14.80;8.78;;;;;;;19.11;64.74;99786.41;1710786;82;21051;-71
2022/07/27 00:44:27;;;;;;;11.18;8.65;;;;;;;19.10;64.88;99790.30;1729174;82;21035;-72
2022/07/27 00:46:57;;;;;;;14.40;8.88;;;;;;;19.06;65.03;99799.44;1718691;82;21027;-70
2022/07/27 00:49:27;;;;;;;9.83;8.28;;;;;;;19.02;65.24;99796.36;1729415;82;21052;-71
2022/07/27 00:51:56;;;;;;;8.90;7.95;;;;;;;18.99;65.38;99797.73;1712342;83;21111;-69
2022/07/27 00:54:26;;;;;;;12.10;8.15;;;;;;;18.97;65.46;99788.83;1737833;82;20983;-68
2022/07/27 00:56:58;;;;;;;10.38;8.08;;;;;;;18.98;65.42;99787.73;1718137;82;21098;-68
2022/07/27 00:59:27;;;;;;;13.25;8.13;;;;;;;18.97;65.41;99789.38;1729552;82;21023;-70
2022/07/27 01:01:58;;;;;;;10.95;7.35;;;;;;;18.95;65.60;99786.03;1717616;82;21034;-71
2022/07/27 01:04:27;;;;;;;8.18;7.22;;;;;;;18.97;65.64;99796.32;1735960;82;21039;-70
2022/07/27 01:06:58;;;;;;;9.40;7.78;;;;;;;18.97;65.72;99788.83;1729588;82;21011;-71
2022/07/27 01:12:17;;;;;;;11.75;7.17;;;;;;;18.92;66.01;99787.95;1734210;82;21030;-71
2022/07/27 01:14:48;;;;;;;10.13;6.95;;;;;;;18.92;66.05;99792.96;1691686;82;21004;-70
2022/07/27 01:17:18;;;;;;;10.08;7.10;;;;;;;18.94;65.92;99799.63;1746957;82;21020;-70
2022/07/27 01:19:48;;;;;;;10.80;7.22;;;;;;;18.93;65.88;99800.73;1736372;82;21460;-70
2022/07/27 01:22:20;;;;;;;8.68;6.22;;;;;;;18.88;66.02;99796.54;1731189;82;21079;-71
2022/07/27 01:24:49;;;;;;;8.23;6.55;;;;;;;18.82;66.15;99797.02;1736638;82;21074;-72
2022/07/27 01:27:19;;;;;;;7.92;6.08;;;;;;;18.79;66.29;99801.72;1744507;82;21023;-70
2022/07/27 01:29:48;;;;;;;8.30;6.33;;;;;;;18.77;66.44;99796.16;1742020;82;21520;-72
2022/07/27 01:32:18;;;;;;;7.70;6.08;;;;;;;18.75;66.66;99796.42;1755175;82;21058;-71
2022/07/27 01:34:47;;;;;;;7.20;6.47;;;;;;;18.72;66.77;99799.72;1727447;82;21063;-70
2022/07/27 01:37:18;;;;;;;8.30;7.30;;;;;;;18.66;66.91;99793.30;1752389;82;21023;-70
2022/07/27 01:39:48;;;;;;;8.53;7.50;;;;;;;18.62;67.03;99794.93;1738314;82;21031;-70
2022/07/27 01:42:18;;;;;;;9.20;7.58;;;;;;;18.58;67.17;99794.31;1735588;82;21506;-71
2022/07/27 01:44:48;;;;;;;7.83;7.10;;;;;;;18.57;67.36;99799.02;1722494;82;21023;-71
2022/07/27 01:47:18;;;;;;;9.20;7.12;;;;;;;18.56;67.54;99797.89;1727047;82;21525;-71
2022/07/27 01:49:48;;;;;;;9.18;7.47;;;;;;;18.58;67.64;99798.47;1730035;82;21019;-70
2022/07/27 01:52:18;;;;;;;8.68;7.80;;;;;;;18.59;67.52;99791.27;1715500;82;21079;-70
2022/07/27 01:54:49;;;;;;;11.55;8.00;;;;;;;18.59;67.54;99792.66;1750513;82;21078;-71
2022/07/27 01:57:19;;;;;;;11.15;8.33;;;;;;;18.61;67.52;99793.78;1741162;82;21051;-72
2022/07/27 01:59:48;;;;;;;8.33;7.42;;;;;;;18.59;67.49;99794.05;1740960;82;21047;-70
2022/07/27 02:02:18;;;;;;;9.05;7.95;;;;;;;18.60;67.46;99792.10;1725894;82;21420;-70
2022/07/27 02:04:47;;;;;;;24.23;8.40;;;;;;;18.56;67.51;99797.89;1736221;82;21004;-71
2022/07/27 02:07:17;;;;;;;11.65;9.63;;;;;;;18.57;67.69;99786.53;1723179;82;21035;-71
2022/07/27 02:09:46;;;;;;;12.90;10.85;;;;;;;18.60;67.64;99786.00;1733020;82;21050;-69
2022/07/27 02:15:12;;;;;;;13.38;10.53;;;;;;;18.61;67.75;99789.62;1721036;82;21008;-68
2022/07/27 02:17:43;;;;;;;14.55;11.10;;;;;;;18.58;67.81;99791.53;1725907;82;21031;-71
2022/07/27 02:20:17;;;;;;;11.10;9.90;;;;;;;18.57;67.94;99792.64;1739641;82;20987;-70
2022/07/27 02:22:47;;;;;;;13.10;9.45;;;;;;;18.57;67.99;99796.80;1739832;82;21443;-72
2022/07/27 02:25:17;;;;;;;10.45;8.58;;;;;;;18.55;68.06;99798.45;1744943;82;21047;-72
2022/07/27 02:27:48;;;;;;;8.80;7.05;;;;;;;18.55;68.10;99792.90;1738414;82;21067;-71
2022/07/27 02:30:18;;;;;;;7.30;6.60;;;;;;;18.52;68.11;99789.81;1733061;82;21070;-71
2022/07/27 02:32:48;;;;;;;7.40;6.10;;;;;;;18.50;68.20;99794.24;1736246;82;21127;-71
2022/07/27 02:35:18;;;;;;;7.50;6.40;;;;;;;18.47;68.30;99794.77;1730451;82;21233;-72
2022/07/27 02:37:48;;;;;;;10.90;6.92;;;;;;;18.47;68.33;99797.55;1747492;82;20979;-71
2022/07/27 02:40:19;;;;;;;10.32;7.30;;;;;;;18.44;68.51;99795.85;1736196;82;21019;-71
2022/07/27 02:42:48;;;;;;;10.40;6.45;;;;;;;18.44;68.73;99796.69;1736616;82;21933;-71
2022/07/27 02:45:18;;;;;;;15.93;6.95;;;;;;;18.44;68.87;99808.33;1711150;82;21078;-72
2022/07/27 02:47:48;;;;;;;9.85;6.62;;;;;;;18.42;68.92;99803.60;1734370;82;21063;-71
2022/07/27 02:50:18;;;;;;;9.98;6.70;;;;;;;18.39;68.98;99796.64;1737542;82;21087;-72
2022/07/27 02:52:47;;;;;;;9.70;6.90;;;;;;;18.39;69.14;99804.97;1736112;82;21051;-70
2022/07/27 02:55:17;;;;;;;10.40;6.83;;;;;;;18.35;69.25;99796.88;1737045;82;21027;-71
2022/07/27 02:57:47;;;;;;;9.00;6.45;;;;;;;18.33;69.41;99800.47;1722652;82;21023;-71
2022/07/27 03:00:18;;;;;;;11.48;6.17;;;;;;;18.36;69.37;99804.95;1736784;82;21067;-70
2022/07/27 03:02:50;;;;;;;9.93;5.85;;;;;;;18.43;69.28;99804.73;1736303;82;21087;-72
2022/07/27 03:05:19;;;;;;;9.73;6.35;;;;;;;18.41;69.15;99806.09;1746680;82;21550;-71
2022/07/27 03:07:48;;;;;;;8.78;6.33;;;;;;;18.38;69.26;99807.45;1722910;82;21055;-71
2022/07/27 03:10:18;;;;;;;9.83;6.05;;;;;;;18.41;69.30;99806.09;1722934;82;21051;-70
2022/07/27 03:12:47;;;;;;;9.58;5.83;;;;;;;18.41;69.24;99807.48;1722278;82;21087;-70
2022/07/27 03:15:16;;;;;;;8.38;5.65;;;;;;;18.44;69.29;99816.66;1729226;82;21086;-71
2022/07/27 03:17:47;;;;;;;9.45;5.50;;;;;;;18.46;69.39;99807.52;1731967;82;21055;-71
2022/07/27 03:20:16;;;;;;;11.57;6.15;;;;;;;18.45;69.43;99811.40;1726384;82;21094;-72
2022/07/27 03:22:46;;;;;;;8.95;6.17;;;;;;;18.44;69.58;99805.56;1733676;82;21079;-70
2022/07/27 03:25:16;;;;;;;8.35;6.40;;;;;;;18.44;69.49;99807.78;1731731;82;21501;-72
2022/07/27 03:27:46;;;;;;;12.10;6.30;;;;;;;18.43;69.38;99813.05;1730516;82;21537;-70
2022/07/27 03:30:16;;;;;;;9.73;6.35;;;;;;;18.47;69.51;99814.74;1726549;82;21044;-71
2022/07/27 03:32:47;;;;;;;8.60;6.00;;;;;;;18.51;69.52;99815.34;1738130;82;21032;-72
2022/07/27 03:35:17;;;;;;;9.53;6.75;;;;;;;18.58;69.33;99814.56;1726123;82;21075;-71
2022/07/27 03:37:49;;;;;;;7.58;5.50;;;;;;;18.63;69.31;99816.03;1724801;82;21035;-71
2022/07/27 03:40:20;;;;;;;10.15;6.08;;;;;;;18.69;69.21;99824.68;1728229;82;21075;-71
2022/07/27 03:42:49;;;;;;;10.38;6.08;;;;;;;18.74;69.29;99816.95;1734191;82;21035;-70
2022/07/27 03:45:22;;;;;;;10.00;5.95;;;;;;;18.75;69.35;99813.62;1718791;82;21087;-71
2022/07/27 03:47:51;;;;;;;10.93;6.20;;;;;;;18.76;69.27;99813.35;1726854;82;21055;-71
2022/07/27 03:50:22;;;;;;;11.12;5.20;;;;;;;18.82;69.22;99822.56;1711955;82;21432;-71
2022/07/27 03:52:53;;;;;;;10.38;5.72;;;;;;;18.84;69.20;99821.73;1724761;82;21439;-70
2022/07/27 03:55:22;;;;;;;10.53;5.45;;;;;;;18.85;69.23;99812.31;1722208;82;21114;-72
2022/07/27 03:57:52;;;;;;;8.70;5.08;;;;;;;18.90;69.18;99816.54;1735034;82;20988;-71
2022/07/27 04:00:22;;;;;;;8.25;5.60;;;;;;;18.94;69.20;99812.13;1735114;82;21094;-71
2022/07/27 04:02:52;;;;;;;7.20;5.00;;;;;;;18.98;69.09;99819.66;1727587;82;21030;-71
2022/07/27 04:05:22;;;;;;;10.60;5.28;;;;;;;19.07;69.01;99810.82;1729193;82;21570;-72
2022/07/27 04:07:51;;;;;;;12.07;5.47;;;;;;;19.12;68.84;99811.69;1733574;83;21000;-71
2022/07/27 04:10:24;;;;;;;12.70;5.30;;;;;;;19.21;68.40;99818.41;1731262;82;21047;-71
2022/07/27 04:12:56;;;;;;;10.98;4.42;;;;;;;19.30;68.18;99812.63;1725031;82;21475;-72
2022/07/27 04:15:27;;;;;;;8.85;4.42;;;;;;;19.39;67.90;99818.51;1722414;82;21258;-72
2022/07/27 04:17:57;;;;;;;13.80;4.85;;;;;;;19.48;67.46;99811.33;1726941;82;21036;-72
2022/07/27 04:20:28;;;;;;;9.68;4.30;;;;;;;19.57;66.96;99814.48;1736206;82;21058;-73
2022/07/27 04:22:57;;;;;;;6.70;3.80;;;;;;;19.67;66.52;99814.53;1729040;82;21039;-71
2022/07/27 04:25:28;;;;;;;3.90;3.12;;;;;;;19.77;65.66;99814.57;1729222;82;21468;-73
2022/07/27 04:27:59;;;;;;;6.08;2.85;;;;;;;19.89;64.58;99809.61;1730534;82;21000;-71
2022/07/27 04:30:28;;;;;;;6.60;3.12;;;;;;;20.02;63.89;99814.36;1731942;82;21035;-70
2022/07/27 04:32:58;;;;;;;4.30;2.80;;;;;;;20.14;63.12;99812.17;1723684;82;21114;-72
2022/07/27 04:35:28;;;;;;;7.15;2.70;;;;;;;20.26;63.36;99813.61;1730912;82;21051;-71
2022/07/27 04:37:57;;;;;;;4.05;2.58;;;;;;;20.35;62.90;99812.52;1730551;82;21055;-71
2022/07/27 04:40:32;;;;;;;3.87;2.40;;;;;;;20.46;62.38;99813.39;1727078;82;21015;-71
2022/07/27 04:43:03;;;;;;;10.70;6.87;;;;;;;20.59;61.34;99805.88;1731855;82;21030;-70
2022/07/27 04:45:33;;;;;;;3.90;2.72;;;;;;;20.71;60.55;99810.61;1733966;82;21071;-71
2022/07/27 04:48:09;;;;;;;4.45;2.40;;;;;;;20.84;59.87;99814.81;1729376;82;21079;-69
2022/07/27 04:50:41;;;;;;;4.97;2.35;;;;;;;20.97;59.16;99817.03;1731930;82;21413;-70
2022/07/27 04:53:10;;;;;;;2.47;2.08;;;;;;;21.08;58.64;99822.02;1738377;82;21040;-69
2022/07/27 04:55:43;;;;;;;2.75;2.30;;;;;;;21.18;58.38;99813.64;1726835;82;21000;-70
2022/07/27 04:58:15;;;;;;;5.05;2.47;;;;;;;21.28;58.22;99818.39;1731893;82;21040;-71
2022/07/27 05:00:45;;;;;;;3.87;2.25;;;;;;;21.38;57.67;99821.15;1732290;82;20996;-71
2022/07/27 05:03:17;;;;;;;4.78;2.70;;;;;;;21.51;57.38;99820.58;1724130;82;21096;-72
2022/07/27 05:05:46;;;;;;;3.33;2.40;;;;;;;21.66;57.18;99819.13;1725025;82;21059;-71
2022/07/27 05:08:18;;;;;;;5.12;2.60;;;;;;;21.86;56.76;99822.95;1723857;83;21027;-70
2022/07/27 05:10:49;;;;;;;5.53;2.50;;;;;;;22.07;56.08;99818.96;1670372;85;21071;-71
2022/07/27 05:13:19;;;;;;;6.45;3.67;;;;;;;22.34;55.31;99818.55;1668581;85;21096;-68
2022/07/27 05:15:50;;;;;;;3.72;2.50;;;;;;;22.59;54.41;99832.31;1663077;86;21043;-70
2022/07/27 05:18:22;;;;;;;6.78;2.60;;;;;;;22.85;53.63;99822.39;1634915;86;21002;-68
2022/07/27 05:20:54;;;;;;;3.33;2.47;;;;;;;23.05;53.02;99828.63;1651249;86;21639;-70
2022/07/27 05:23:24;;;;;;;3.77;2.50;;;;;;;23.32;52.55;99832.83;1657658;86;21485;-70
2022/07/27 05:25:54;;;;;;;5.83;2.50;;;;;;;23.61;51.84;99833.67;1662911;86;21026;-69
2022/07/27 05:28:23;;;;;;;2.90;2.05;;;;;;;23.93;50.84;99832.16;1663550;86;21023;-70
2022/07/27 05:30:53;;;;;;;4.05;2.20;;;;;;;24.26;50.03;99833.96;1662551;86;21087;-70
2022/07/27 05:33:24;;;;;;;4.08;2.40;;;;;;;24.58;49.14;99825.39;1660193;86;21091;-72
2022/07/27 05:35:55;;;;;;;3.98;2.60;;;;;;;24.83;48.16;99831.17;1703591;83;21507;-70
2022/07/27 05:38:25;;;;;;;4.55;2.90;;;;;;;25.08;47.53;99828.53;1725015;83;21047;-65
2022/07/27 05:40:55;;;;;;;6.83;3.98;;;;;;;25.29;46.82;99836.25;1732139;83;21059;-71
2022/07/27 05:43:24;;;;;;;4.12;2.80;;;;;;;25.53;46.64;99838.91;1728629;83;21078;-70
2022/07/27 05:45:54;;;;;;;4.58;2.42;;;;;;;25.81;45.74;99831.35;1727043;82;21024;-70
2022/07/27 05:48:25;;;;;;;6.05;3.90;;;;;;;26.06;45.06;99838.43;1726484;83;21059;-71
2022/07/27 05:50:54;;;;;;;4.47;3.42;;;;;;;26.31;44.77;99834.22;1726251;83;21078;-70
2022/07/27 05:53:24;;;;;;;7.53;3.30;;;;;;;26.61;44.29;99833.27;1732740;83;21023;-72
2022/07/27 05:55:54;;;;;;;4.92;2.83;;;;;;;26.92;43.20;99834.20;1723095;83;21070;-70
2022/07/27 05:58:29;;;;;;;5.87;2.60;;;;;;;27.19;42.39;99840.27;1717032;83;21018;-72
2022/07/27 06:00:58;;;;;;;6.60;2.02;;;;;;;27.43;41.67;99842.18;1727584;82;21024;-69
2022/07/27 06:03:29;;;;;;;4.00;2.27;;;;;;;27.67;41.06;99845.21;1726709;83;21032;-70
2022/07/27 06:08:49;;;;;;;5.15;2.30;;;;;;;28.12;39.88;99845.05;1727867;81;20988;-70
2022/07/27 06:11:19;;;;;;;8.78;2.75;;;;;;;28.31;39.23;99844.20;1733351;82;21032;-71
2022/07/27 06:13:51;;;;;;;4.95;2.58;;;;;;;28.45;38.89;99845.45;1736015;82;21048;-70
2022/07/27 06:16:24;;;;;;;4.55;2.00;;;;;;;28.55;38.26;99842.31;1722650;82;21420;-71
2022/07/27 06:18:53;;;;;;;13.68;4.67;;;;;;;28.66;37.79;99836.05;1742317;82;21011;-71
2022/07/27 06:21:25;;;;;;;10.05;3.20;;;;;;;28.78;37.29;99833.14;1738510;82;20977;-69
2022/07/27 06:23:55;;;;;;;2.47;2.00;;;;;;;28.81;37.70;99836.12;1732333;82;21047;-71
2022/07/27 06:26:24;;;;;;;4.53;2.17;;;;;;;28.91;37.46;99836.39;1734006;82;21054;-70
2022/07/27 06:28:57;;;;;;;4.10;2.90;;;;;;;29.02;36.56;99834.30;1665505;86;22524;-71
2022/07/27 06:31:27;;;;;;;5.50;2.17;;;;;;;29.10;36.66;99834.61;1654334;86;21085;-70
2022/07/27 06:33:57;;;;;;;6.30;2.70;;;;;;;29.31;35.82;99839.23;1642796;86;21098;-72
2022/07/27 06:36:28;;;;;;;5.92;2.67;;;;;;;29.41;36.11;99832.98;1665584;86;21054;-70
2022/07/27 06:38:59;;;;;;;3.67;2.27;;;;;;;29.56;35.83;99838.94;1651787;86;21079;-72
2022/07/27 06:41:32;;;;;;;3.70;2.70;;;;;;;29.79;35.02;99831.02;1649010;86;21462;-70
2022/07/27 06:44:02;;;;;;;6.97;4.30;;;;;;;29.98;34.42;99834.86;1652109;86;21031;-70
2022/07/27 06:46:31;;;;;;;3.70;2.30;;;;;;;30.07;34.68;99836.25;1591690;86;21070;-71
2022/07/27 06:49:00;;;;;;;10.68;4.00;;;;;;;30.22;33.59;99840.72;1654253;86;21074;-68
2022/07/27 06:51:30;;;;;;;31.35;5.10;;;;;;;30.33;33.41;99839.73;1640414;86;21082;-71
2022/07/27 06:54:03;;;;;;;4.58;2.25;;;;;;;30.47;33.23;99836.05;1650666;86;21529;-71
2022/07/27 06:56:33;;;;;;;5.47;2.50;;;;;;;30.53;33.37;99840.91;1648762;86;21522;-71
2022/07/27 06:59:02;;;;;;;8.20;3.75;;;;;;;30.56;33.73;99834.02;1650251;86;21126;-71
2022/07/27 07:01:33;;;;;;;3.95;2.72;;;;;;;30.53;34.10;99836.09;1655228;86;21055;-72
2022/07/27 07:04:02;;;;;;;3.15;2.05;;;;;;;30.61;33.67;99833.59;1665961;83;21067;-71
2022/07/27 07:06:33;;;;;;;4.55;2.15;;;;;;;30.72;33.06;99839.08;1736856;82;21080;-70
2022/07/27 07:09:02;;;;;;;2.65;2.27;;;;;;;30.88;32.50;99837.26;1729518;82;21031;-70
2022/07/27 07:11:32;;;;;;;4.75;2.02;;;;;;;31.03;32.35;99832.95;1736165;82;21066;-71
2022/07/27 07:14:03;;;;;;;7.05;2.80;;;;;;;31.19;32.33;99842.47;1722640;82;21110;-71
2022/07/27 07:16:32;;;;;;;4.78;2.92;;;;;;;31.29;31.63;99834.16;1749453;82;21061;-71
2022/07/27 07:19:04;;;;;;;2.55;1.98;;;;;;;31.35;31.81;99839.24;1731789;82;21031;-71
2022/07/27 07:21:34;;;;;;;5.00;2.58;;;;;;;31.48;31.30;99842.93;1722629;82;21075;-72
2022/07/27 07:24:03;;;;;;;6.62;2.25;;;;;;;31.61;31.10;99836.10;1735510;82;21041;-71
2022/07/27 07:26:35;;;;;;;2.98;1.95;;;;;;;31.82;30.82;99836.03;1749873;82;21046;-71
2022/07/27 07:29:07;;;;;;;4.17;2.45;;;;;;;32.02;30.16;99838.54;1731283;82;21019;-68
2022/07/27 07:31:38;;;;;;;4.08;2.30;;;;;;;32.06;29.87;99839.48;1733646;82;21019;-67
2022/07/27 07:34:10;;;;;;;3.45;2.08;;;;;;;32.06;30.11;99842.31;1733964;82;21512;-72
2022/07/27 07:36:40;;;;;;;4.78;2.33;;;;;;;32.22;29.47;99841.00;1747396;82;20999;-70
2022/07/27 07:39:10;;;;;;;4.17;2.42;;;;;;;32.26;29.21;99841.97;1740369;82;21015;-71
2022/07/27 07:41:40;;;;;;;4.37;1.98;;;;;;;31.92;29.19;99837.59;1751980;82;21459;-71
2022/07/27 07:44:11;;;;;;;3.00;2.12;;;;;;;31.57;29.69;99837.98;1724327;82;21019;-72
2022/07/27 07:46:42;;;;;;;4.50;2.40;;;;;;;31.48;29.66;99833.02;1732758;82;21078;-71
2022/07/27 07:49:14;;;;;;;4.10;2.27;;;;;;;31.48;29.55;99833.02;1754989;82;21042;-71
2022/07/27 07:51:48;;;;;;;5.72;2.30;;;;;;;31.48;29.23;99836.67;1743172;82;21075;-72
2022/07/27 07:54:18;;;;;;;5.97;2.40;;;;;;;31.57;29.38;99830.91;1736200;82;21089;-71
2022/07/27 07:56:48;;;;;;;3.45;2.12;;;;;;;31.70;29.43;99829.77;1732709;82;21046;-71
2022/07/27 07:59:18;;;;;;;2.95;2.12;;;;;;;31.79;29.50;99838.98;1734144;81;21030;-68
2022/07/27 08:01:47;;;;;;;6.62;2.77;;;;;;;31.71;29.46;99838.50;1738135;82;21058;-71
2022/07/27 08:04:17;;;;;;;4.12;2.17;;;;;;;31.48;30.27;99838.09;1724847;82;21098;-69
2022/07/27 08:06:49;;;;;;;3.45;2.00;;;;;;;31.34;30.39;99839.59;1733005;81;21028;-70
2022/07/27 08:09:20;;;;;;;2.58;2.10;;;;;;;31.37;30.16;99835.47;1727440;82;21075;-69
2022/07/27 08:11:50;;;;;;;4.97;2.62;;;;;;;31.45;29.98;99841.63;1722269;82;21094;-67
2022/07/27 08:14:22;;;;;;;3.90;2.67;;;;;;;31.57;29.80;99838.58;1713756;81;21051;-69
2022/07/27 08:16:52;;;;;;;3.35;2.50;;;;;;;31.72;29.75;99830.24;1741669;81;21447;-68
2022/07/27 08:19:24;;;;;;;3.87;2.30;;;;;;;31.96;29.36;99839.95;1754984;82;21082;-68
2022/07/27 08:21:54;;;;;;;5.33;2.27;;;;;;;32.16;28.87;99832.73;1729335;82;21467;-67
2022/07/27 08:24:24;;;;;;;4.00;2.50;;;;;;;32.18;28.69;99829.55;1730689;82;21031;-68
2022/07/27 08:26:54;;;;;;;5.15;2.35;;;;;;;32.09;29.04;99831.68;1728356;82;20998;-66
2022/07/27 08:29:23;;;;;;;4.75;2.40;;;;;;;31.96;29.31;99835.70;1734982;81;21015;-67
2022/07/27 08:31:54;;;;;;;6.22;3.08;;;;;;;31.76;29.59;99831.19;1738710;81;21144;-69
2022/07/27 08:34:26;;;;;;;2.92;2.33;;;;;;;31.65;29.85;99830.56;1741235;82;21017;-63
2022/07/27 08:36:55;;;;;;;4.42;1.90;;;;;;;31.76;29.64;99832.60;1741303;81;21445;-64
2022/07/27 08:39:25;;;;;;;4.87;2.42;;;;;;;31.93;29.08;99832.16;1730255;81;21106;-63
2022/07/27 08:41:58;;;;;;;9.08;3.25;;;;;;;31.89;29.37;99826.97;1725934;82;21123;-64
2022/07/27 08:44:33;;;;;;;4.33;2.12;;;;;;;31.82;29.41;99822.69;1737159;82;21066;-63
2022/07/27 08:47:03;;;;;;;7.17;2.30;;;;;;;32.02;28.94;99831.45;1744360;81;21067;-64
2022/07/27 08:49:35;;;;;;;6.15;2.10;;;;;;;32.11;28.38;99827.90;1744766;82;21062;-64
2022/07/27 08:52:09;;;;;;;4.10;2.10;;;;;;;32.08;28.34;99826.61;1730912;81;21062;-65
2022/07/27 08:54:40;;;;;;;7.85;2.77;;;;;;;32.14;28.24;99817.27;1729967;81;21074;-64
2022/07/27 08:57:13;;;;;;;4.15;2.00;;;;;;;32.16;29.25;99818.56;1732051;82;21087;-63
2022/07/27 08:59:44;;;;;;;4.60;2.00;;;;;;;32.34;28.25;99816.31;1737178;81;21078;-64
2022/07/27 09:02:15;;;;;;;4.97;2.30;;;;;;;32.28;28.15;99821.17;1729768;81;21031;-64
2022/07/27 09:04:45;;;;;;;3.12;2.15;;;;;;;32.23;28.44;99821.39;1737720;81;21034;-63
2022/07/27 09:07:30;;;;;;;5.58;2.30;;;;;;;32.13;28.91;99825.53;1742464;81;21038;-62
2022/07/27 09:10:03;;;;;;;3.75;2.22;;;;;;;32.08;29.01;99828.02;1745041;82;21600;-64
2022/07/27 09:12:34;;;;;;;3.10;1.98;;;;;;;31.88;29.12;99821.89;1740301;82;21074;-65
2022/07/27 09:15:09;;;;;;;7.08;2.37;;;;;;;31.61;29.60;99835.28;1727963;82;21042;-63
2022/07/27 09:17:41;;;;;;;10.93;3.37;;;;;;;31.27;30.20;99824.59;1716232;82;21067;-66
2022/07/27 09:20:19;;;;;;;4.35;2.50;;;;;;;31.08;30.71;99827.08;1728176;82;21503;-64
2022/07/27 09:22:55;;;;;;;5.42;2.00;;;;;;;30.96;31.00;99824.20;1724029;82;21022;-64
2022/07/27 09:25:32;;;;;;;3.20;2.40;;;;;;;30.88;31.07;99826.77;1734161;82;21020;-62
2022/07/27 09:28:00;;;;;;;3.65;2.17;;;;;;;30.79;31.27;99828.03;1727453;82;21495;-63
2022/07/27 09:30:30;;;;;;;6.20;2.90;;;;;;;30.72;31.64;99827.17;1735890;82;21036;-66
2022/07/27 09:33:03;;;;;;;3.65;2.50;;;;;;;30.70;31.99;99821.62;1721141;82;21091;-65
2022/07/27 09:35:34;;;;;;;3.60;2.45;;;;;;;30.72;32.14;99815.86;1725189;82;21058;-66
2022/07/27 09:38:21;;;;;;;4.17;2.72;;;;;;;30.81;31.89;99810.95;1730437;82;21083;-64
2022/07/27 09:41:03;;;;;;;3.00;2.10;;;;;;;30.87;31.80;99813.80;1713581;82;21054;-64
2022/07/27 09:43:48;;;;;;;3.25;2.17;;;;;;;30.88;31.25;99820.28;1725429;82;21071;-64
2022/07/27 09:46:33;;;;;;;4.58;2.33;;;;;;;30.84;31.21;99825.81;1726659;82;21164;-64
2022/07/27 09:49:03;;;;;;;3.22;2.10;;;;;;;30.80;31.41;99818.37;1727650;82;21514;-64
2022/07/27 09:51:36;;;;;;;6.75;2.50;;;;;;;30.81;31.47;99827.09;1731936;82;21047;-64
2022/07/27 09:54:09;;;;;;;4.40;2.22;;;;;;;30.90;31.01;99820.77;1682859;83;21074;-65
2022/07/27 09:56:44;;;;;;;4.50;2.13;;;;;;;30.94;30.87;99823.14;1735603;82;21035;-66
2022/07/27 09:59:17;;;;;;;8.33;2.40;;;;;;;30.92;30.49;99828.31;1725279;82;21048;-65
2022/07/27 10:01:47;;;;;;;4.90;2.00;;;;;;;30.83;30.50;99825.58;1724174;82;21102;-66
2022/07/27 10:04:21;;;;;;;6.75;2.25;;;;;;;30.73;31.19;99832.24;1736828;82;21118;-64
2022/07/27 10:06:54;;;;;;;5.05;2.30;;;;;;;30.65;31.14;99831.73;1693373;84;21038;-66
2022/07/27 10:09:27;;;;;;;3.95;2.15;;;;;;;30.55;31.08;99823.84;1729283;81;21126;-66
2022/07/27 10:11:58;;;;;;;4.33;2.20;;;;;;;30.40;31.23;99827.29;1739975;82;21039;-65
2022/07/27 10:14:28;;;;;;;12.15;2.95;;;;;;;30.28;31.45;99827.22;1725419;82;21493;-66
2022/07/27 10:16:59;;;;;;;3.50;1.92;;;;;;;30.27;31.54;99826.39;1722633;82;21086;-66
2022/07/27 10:19:45;;;;;;;4.28;2.00;;;;;;;30.31;31.28;99825.12;1746142;82;21046;-67
2022/07/27 10:22:16;;;;;;;5.58;2.30;;;;;;;30.30;31.46;99822.05;1734580;82;21063;-68
2022/07/27 10:24:52;;;;;;;6.03;2.10;;;;;;;30.39;31.55;99821.98;1730049;82;21261;-67
2022/07/27 10:27:28;;;;;;;3.60;2.10;;;;;;;30.43;31.56;99821.53;1735355;82;21031;-67
2022/07/27 10:29:59;;;;;;;5.58;2.35;;;;;;;30.47;31.58;99825.33;1740992;82;21114;-67
2022/07/27 10:32:29;;;;;;;3.77;1.85;;;;;;;30.54;31.51;99822.77;1737169;82;21015;-66
2022/07/27 10:35:00;;;;;;;7.37;2.90;;;;;;;30.63;31.34;99829.25;1722636;82;21719;-66
2022/07/27 10:37:33;;;;;;;3.17;2.20;;;;;;;30.68;31.28;99824.80;1749214;82;21443;-67
2022/07/27 10:43:07;;;;;;;3.02;1.90;;;;;;;30.55;31.25;99814.53;1739578;82;21023;-67
2022/07/27 10:45:44;;;;;;;4.03;2.40;;;;;;;30.52;31.27;99818.87;1740106;82;22243;-68
2022/07/27 10:48:38;;;;;;;4.28;2.35;;;;;;;30.49;31.30;99821.57;1749299;80;21042;-66
2022/07/27 10:51:10;;;;;;;2.98;1.90;;;;;;;30.39;31.27;99819.98;1713013;82;21091;-68
2022/07/27 10:53:41;;;;;;;3.60;1.87;;;;;;;30.24;31.44;99816.36;1733478;82;21145;-67
2022/07/27 10:56:14;;;;;;;5.67;2.58;;;;;;;30.18;31.57;99821.97;1720647;82;21493;-67
2022/07/27 10:58:44;;;;;;;6.65;2.22;;;;;;;30.20;31.78;99823.28;1685964;82;21139;-65
2022/07/27 11:01:13;;;;;;;4.10;1.72;;;;;;;30.24;31.82;99822.84;1741271;82;21054;-67
2022/07/27 11:03:49;;;;;;;5.62;2.00;;;;;;;30.32;31.82;99824.53;1733535;82;21588;-67
2022/07/27 11:06:21;;;;;;;5.50;1.90;;;;;;;30.31;31.93;99822.28;1722311;82;21058;-67
2022/07/27 11:08:52;;;;;;;3.40;2.20;;;;;;;30.29;31.88;99824.63;1712235;82;21811;-67
2022/07/27 11:11:25;;;;;;;5.97;2.20;;;;;;;30.32;31.92;99822.53;1738515;82;21079;-68
2022/07/27 11:13:59;;;;;;;4.72;1.77;;;;;;;30.35;32.02;99828.91;1715237;82;21087;-68
2022/07/27 11:16:29;;;;;;;3.20;1.80;;;;;;;30.41;31.89;99828.13;1744935;81;21403;-69
2022/07/27 11:19:05;;;;;;;3.72;1.92;;;;;;;30.43;31.89;99827.19;1734298;82;21058;-68
2022/07/27 11:21:37;;;;;;;2.72;2.02;;;;;;;30.43;32.03;99829.43;1745179;81;21034;-65
2022/07/27 11:24:13;;;;;;;3.62;2.20;;;;;;;30.44;32.14;99821.77;1731741;82;21014;-67
2022/07/27 11:26:49;;;;;;;4.67;1.75;;;;;;;30.43;32.28;99835.09;1735158;82;21085;-66
2022/07/27 11:29:21;;;;;;;5.17;2.27;;;;;;;30.27;31.96;99832.63;1741476;81;21023;-65
2022/07/27 11:31:54;;;;;;;7.22;2.05;;;;;;;30.05;32.60;99834.35;1742721;81;20994;-66
2022/07/27 11:34:35;;;;;;;5.78;2.30;;;;;;;29.91;32.21;99834.53;1742205;82;21006;-67
2022/07/27 11:37:10;;;;;;;5.87;2.70;;;;;;;29.81;32.35;99837.16;1751372;82;21117;-66
2022/07/27 11:39:41;;;;;;;5.15;1.90;;;;;;;29.73;32.45;99830.97;1744618;82;21062;-68
2022/07/27 11:42:14;;;;;;;7.72;1.70;;;;;;;29.60;32.81;99839.09;1743310;81;21047;-67
2022/07/27 11:44:45;;;;;;;5.83;1.50;;;;;;;29.60;32.81;99839.09;1736966;81;21469;-67
2022/07/27 11:47:19;;;;;;;2.60;1.70;;;;;;;29.54;33.15;99833.38;1732278;81;21098;-68
2022/07/27 11:49:49;;;;;;;4.05;1.90;;;;;;;29.52;33.27;99845.59;1749991;81;21031;-66
2022/07/27 11:52:19;;;;;;;7.05;2.05;;;;;;;29.45;33.03;99840.47;1738026;81;21078;-67
2022/07/27 11:54:51;;;;;;;6.67;2.35;;;;;;;29.18;34.56;99854.92;1742304;81;21047;-66
2022/07/27 11:57:22;;;;;;;7.78;2.08;;;;;;;29.01;35.03;99864.25;1733990;81;21469;-67
2022/07/27 11:59:51;;;;;;;7.53;1.82;;;;;;;29.01;35.03;99864.25;1677343;82;21011;-66
2022/07/27 12:02:21;;;;;;;7.92;2.20;;;;;;;28.73;35.30;99863.16;1753052;82;21007;-65